sensor_id;sensor_type;location;lat;lon;timestamp;P1;durP1;ratioP1;P2;durP2;ratioP2
76228;SDS011;65021;53.174;18.160;2024-02-15T00:00:09;32.10;;;15.00;;
76228;SDS011;65021;53.174;18.160;2024-02-15T00:02:56;27.80;;;12.90;;
76228;SDS011;65021;53.174;18.160;2024-02-15T00:05:23;33.40;;;14.50;;
76228;SDS011;65021;53.174;18.160;2024-02-15T00:07:49;26.60;;;12.80;;
76228;SDS011;65021;53.174;18.160;2024-02-15T00:10:15;26.80;;;12.20;;
76228;SDS011;65021;53.174;18.160;2024-02-15T00:12:41;25.70;;;12.90;;
76228;SDS011;65021;53.174;18.160;2024-02-15T00:15:07;30.90;;;12.70;;
76228;SDS011;65021;53.174;18.160;2024-02-15T00:17:33;30.50;;;14.40;;
76228;SDS011;65021;53.174;18.160;2024-02-15T00:20:02;34.80;;;15.80;;
76228;SDS011;65021;53.174;18.160;2024-02-15T00:22:37;27.40;;;13.50;;
76228;SDS011;65021;53.174;18.160;2024-02-15T00:25:04;30.10;;;15.20;;
76228;SDS011;65021;53.174;18.160;2024-02-15T00:27:31;31.80;;;13.50;;
76228;SDS011;65021;53.174;18.160;2024-02-15T00:29:58;37.70;;;16.40;;
76228;SDS011;65021;53.174;18.160;2024-02-15T00:32:24;35.60;;;16.20;;
76228;SDS011;65021;53.174;18.160;2024-02-15T00:34:50;34.40;;;14.40;;
76228;SDS011;65021;53.174;18.160;2024-02-15T00:37:16;34.50;;;14.80;;
76228;SDS011;65021;53.174;18.160;2024-02-15T00:39:42;36.10;;;15.00;;
76228;SDS011;65021;53.174;18.160;2024-02-15T00:42:08;34.80;;;16.10;;
76228;SDS011;65021;53.174;18.160;2024-02-15T00:44:34;32.50;;;15.70;;
76228;SDS011;65021;53.174;18.160;2024-02-15T00:47:00;36.90;;;15.60;;
76228;SDS011;65021;53.174;18.160;2024-02-15T00:49:26;29.50;;;13.70;;
76228;SDS011;65021;53.174;18.160;2024-02-15T00:51:53;29.10;;;13.00;;
76228;SDS011;65021;53.174;18.160;2024-02-15T00:54:19;33.80;;;15.00;;
76228;SDS011;65021;53.174;18.160;2024-02-15T00:56:45;37.50;;;15.60;;
76228;SDS011;65021;53.174;18.160;2024-02-15T00:59:11;33.40;;;15.50;;
76228;SDS011;65021;53.174;18.160;2024-02-15T01:01:37;34.40;;;15.40;;
76228;SDS011;65021;53.174;18.160;2024-02-15T01:04:03;35.00;;;16.20;;
76228;SDS011;65021;53.174;18.160;2024-02-15T01:06:30;29.20;;;14.00;;
76228;SDS011;65021;53.174;18.160;2024-02-15T01:11:23;31.00;;;12.70;;
76228;SDS011;65021;53.174;18.160;2024-02-15T01:13:49;34.20;;;15.20;;
76228;SDS011;65021;53.174;18.160;2024-02-15T01:16:16;38.90;;;17.50;;
76228;SDS011;65021;53.174;18.160;2024-02-15T01:18:42;35.60;;;16.90;;
76228;SDS011;65021;53.174;18.160;2024-02-15T01:21:08;33.50;;;15.40;;
76228;SDS011;65021;53.174;18.160;2024-02-15T01:23:34;36.90;;;15.50;;
76228;SDS011;65021;53.174;18.160;2024-02-15T01:26:02;35.90;;;15.60;;
76228;SDS011;65021;53.174;18.160;2024-02-15T01:28:28;33.20;;;15.40;;
76228;SDS011;65021;53.174;18.160;2024-02-15T01:30:54;33.50;;;14.10;;
76228;SDS011;65021;53.174;18.160;2024-02-15T01:33:20;31.50;;;14.20;;
76228;SDS011;65021;53.174;18.160;2024-02-15T01:35:49;37.70;;;15.90;;
76228;SDS011;65021;53.174;18.160;2024-02-15T01:38:15;33.00;;;15.80;;
76228;SDS011;65021;53.174;18.160;2024-02-15T01:40:41;33.70;;;15.50;;
76228;SDS011;65021;53.174;18.160;2024-02-15T01:43:08;33.20;;;13.90;;
76228;SDS011;65021;53.174;18.160;2024-02-15T01:45:34;37.10;;;16.70;;
76228;SDS011;65021;53.174;18.160;2024-02-15T01:48:01;36.00;;;16.30;;
76228;SDS011;65021;53.174;18.160;2024-02-15T01:50:29;37.50;;;17.10;;
76228;SDS011;65021;53.174;18.160;2024-02-15T01:52:58;34.00;;;15.10;;
76228;SDS011;65021;53.174;18.160;2024-02-15T01:55:24;39.30;;;16.70;;
76228;SDS011;65021;53.174;18.160;2024-02-15T01:57:51;29.10;;;12.40;;
76228;SDS011;65021;53.174;18.160;2024-02-15T02:00:17;32.50;;;14.60;;
76228;SDS011;65021;53.174;18.160;2024-02-15T02:02:44;28.80;;;13.70;;
76228;SDS011;65021;53.174;18.160;2024-02-15T02:05:11;31.30;;;14.40;;
76228;SDS011;65021;53.174;18.160;2024-02-15T02:07:37;33.60;;;15.40;;
76228;SDS011;65021;53.174;18.160;2024-02-15T02:10:03;31.10;;;14.30;;
76228;SDS011;65021;53.174;18.160;2024-02-15T02:12:30;28.80;;;13.10;;
76228;SDS011;65021;53.174;18.160;2024-02-15T02:14:57;31.40;;;14.40;;
76228;SDS011;65021;53.174;18.160;2024-02-15T02:17:23;32.60;;;14.00;;
76228;SDS011;65021;53.174;18.160;2024-02-15T02:19:49;31.10;;;12.50;;
76228;SDS011;65021;53.174;18.160;2024-02-15T02:22:18;26.10;;;12.60;;
76228;SDS011;65021;53.174;18.160;2024-02-15T02:27:32;29.50;;;14.10;;
76228;SDS011;65021;53.174;18.160;2024-02-15T02:29:58;32.20;;;14.60;;
76228;SDS011;65021;53.174;18.160;2024-02-15T02:32:25;29.40;;;12.30;;
76228;SDS011;65021;53.174;18.160;2024-02-15T02:34:52;30.00;;;14.00;;
76228;SDS011;65021;53.174;18.160;2024-02-15T02:37:25;27.40;;;13.90;;
76228;SDS011;65021;53.174;18.160;2024-02-15T02:39:51;30.40;;;13.40;;
76228;SDS011;65021;53.174;18.160;2024-02-15T02:42:17;25.50;;;12.00;;
76228;SDS011;65021;53.174;18.160;2024-02-15T02:44:43;28.60;;;14.20;;
76228;SDS011;65021;53.174;18.160;2024-02-15T02:47:10;30.90;;;14.30;;
76228;SDS011;65021;53.174;18.160;2024-02-15T02:49:36;29.20;;;13.90;;
76228;SDS011;65021;53.174;18.160;2024-02-15T02:52:03;27.30;;;11.60;;
76228;SDS011;65021;53.174;18.160;2024-02-15T02:54:29;28.70;;;14.60;;
76228;SDS011;65021;53.174;18.160;2024-02-15T02:56:55;29.50;;;13.20;;
76228;SDS011;65021;53.174;18.160;2024-02-15T02:59:22;28.20;;;12.80;;
76228;SDS011;65021;53.174;18.160;2024-02-15T03:01:48;29.40;;;13.00;;
76228;SDS011;65021;53.174;18.160;2024-02-15T03:04:15;28.20;;;14.20;;
76228;SDS011;65021;53.174;18.160;2024-02-15T03:06:43;29.10;;;14.30;;
76228;SDS011;65021;53.174;18.160;2024-02-15T03:09:09;27.60;;;13.00;;
76228;SDS011;65021;53.174;18.160;2024-02-15T03:11:39;27.40;;;12.40;;
76228;SDS011;65021;53.174;18.160;2024-02-15T03:14:05;32.50;;;13.70;;
76228;SDS011;65021;53.174;18.160;2024-02-15T03:16:31;26.90;;;11.90;;
76228;SDS011;65021;53.174;18.160;2024-02-15T03:18:58;33.10;;;14.80;;
76228;SDS011;65021;53.174;18.160;2024-02-15T03:21:24;27.20;;;11.80;;
76228;SDS011;65021;53.174;18.160;2024-02-15T03:23:51;30.10;;;13.30;;
76228;SDS011;65021;53.174;18.160;2024-02-15T03:26:19;28.00;;;13.00;;
76228;SDS011;65021;53.174;18.160;2024-02-15T03:28:55;27.40;;;13.10;;
76228;SDS011;65021;53.174;18.160;2024-02-15T03:31:21;25.50;;;11.60;;
76228;SDS011;65021;53.174;18.160;2024-02-15T03:33:47;28.70;;;13.10;;
76228;SDS011;65021;53.174;18.160;2024-02-15T03:36:16;34.20;;;14.50;;
76228;SDS011;65021;53.174;18.160;2024-02-15T03:38:45;29.10;;;13.50;;
76228;SDS011;65021;53.174;18.160;2024-02-15T03:41:12;27.60;;;13.90;;
76228;SDS011;65021;53.174;18.160;2024-02-15T03:43:38;27.50;;;12.90;;
76228;SDS011;65021;53.174;18.160;2024-02-15T03:46:04;27.30;;;13.70;;
76228;SDS011;65021;53.174;18.160;2024-02-15T03:48:30;27.10;;;13.90;;
76228;SDS011;65021;53.174;18.160;2024-02-15T03:50:57;27.30;;;12.70;;
76228;SDS011;65021;53.174;18.160;2024-02-15T03:53:24;28.70;;;13.90;;
76228;SDS011;65021;53.174;18.160;2024-02-15T03:55:50;24.80;;;11.80;;
76228;SDS011;65021;53.174;18.160;2024-02-15T03:58:19;21.80;;;10.50;;
76228;SDS011;65021;53.174;18.160;2024-02-15T04:00:45;24.60;;;11.70;;
76228;SDS011;65021;53.174;18.160;2024-02-15T04:03:11;30.20;;;14.90;;
76228;SDS011;65021;53.174;18.160;2024-02-15T04:05:37;29.10;;;13.40;;
76228;SDS011;65021;53.174;18.160;2024-02-15T04:08:04;27.90;;;12.40;;
76228;SDS011;65021;53.174;18.160;2024-02-15T04:10:30;25.00;;;11.00;;
76228;SDS011;65021;53.174;18.160;2024-02-15T04:12:56;29.70;;;13.10;;
76228;SDS011;65021;53.174;18.160;2024-02-15T04:15:23;27.90;;;12.90;;
76228;SDS011;65021;53.174;18.160;2024-02-15T04:17:50;28.10;;;12.30;;
76228;SDS011;65021;53.174;18.160;2024-02-15T04:20:21;27.40;;;12.30;;
76228;SDS011;65021;53.174;18.160;2024-02-15T04:22:47;29.20;;;13.60;;
76228;SDS011;65021;53.174;18.160;2024-02-15T04:25:16;29.70;;;13.40;;
76228;SDS011;65021;53.174;18.160;2024-02-15T04:27:44;29.00;;;13.30;;
76228;SDS011;65021;53.174;18.160;2024-02-15T04:30:11;28.70;;;13.60;;
76228;SDS011;65021;53.174;18.160;2024-02-15T04:32:37;26.60;;;12.60;;
76228;SDS011;65021;53.174;18.160;2024-02-15T04:35:04;30.10;;;15.00;;
76228;SDS011;65021;53.174;18.160;2024-02-15T04:37:31;30.20;;;15.00;;
76228;SDS011;65021;53.174;18.160;2024-02-15T04:39:58;38.90;;;19.10;;
76228;SDS011;65021;53.174;18.160;2024-02-15T04:42:32;35.80;;;18.20;;
76228;SDS011;65021;53.174;18.160;2024-02-15T04:45:00;35.20;;;18.80;;
76228;SDS011;65021;53.174;18.160;2024-02-15T04:47:26;40.40;;;20.10;;
76228;SDS011;65021;53.174;18.160;2024-02-15T04:49:52;30.20;;;16.00;;
76228;SDS011;65021;53.174;18.160;2024-02-15T04:52:18;40.00;;;18.50;;
76228;SDS011;65021;53.174;18.160;2024-02-15T04:54:49;38.40;;;19.90;;
76228;SDS011;65021;53.174;18.160;2024-02-15T04:57:15;32.00;;;15.40;;
76228;SDS011;65021;53.174;18.160;2024-02-15T04:59:42;36.40;;;18.40;;
76228;SDS011;65021;53.174;18.160;2024-02-15T05:02:12;33.20;;;16.50;;
76228;SDS011;65021;53.174;18.160;2024-02-15T05:04:38;37.70;;;17.70;;
76228;SDS011;65021;53.174;18.160;2024-02-15T05:07:08;31.70;;;15.80;;
76228;SDS011;65021;53.174;18.160;2024-02-15T05:09:35;34.90;;;16.80;;
76228;SDS011;65021;53.174;18.160;2024-02-15T05:12:01;35.00;;;17.10;;
76228;SDS011;65021;53.174;18.160;2024-02-15T05:16:56;32.60;;;16.70;;
76228;SDS011;65021;53.174;18.160;2024-02-15T05:19:22;40.00;;;18.90;;
76228;SDS011;65021;53.174;18.160;2024-02-15T05:21:49;40.50;;;20.00;;
76228;SDS011;65021;53.174;18.160;2024-02-15T05:24:15;39.10;;;19.50;;
76228;SDS011;65021;53.174;18.160;2024-02-15T05:26:45;41.50;;;19.70;;
76228;SDS011;65021;53.174;18.160;2024-02-15T05:29:12;38.10;;;19.50;;
76228;SDS011;65021;53.174;18.160;2024-02-15T05:31:38;42.80;;;20.60;;
76228;SDS011;65021;53.174;18.160;2024-02-15T05:34:06;42.40;;;20.90;;
76228;SDS011;65021;53.174;18.160;2024-02-15T05:36:37;44.50;;;21.30;;
76228;SDS011;65021;53.174;18.160;2024-02-15T05:39:03;45.00;;;22.30;;
76228;SDS011;65021;53.174;18.160;2024-02-15T05:41:31;49.30;;;24.50;;
76228;SDS011;65021;53.174;18.160;2024-02-15T05:44:00;44.60;;;20.60;;
76228;SDS011;65021;53.174;18.160;2024-02-15T05:46:26;44.60;;;20.70;;
76228;SDS011;65021;53.174;18.160;2024-02-15T05:48:53;47.00;;;22.20;;
76228;SDS011;65021;53.174;18.160;2024-02-15T05:51:19;47.20;;;21.90;;
76228;SDS011;65021;53.174;18.160;2024-02-15T05:53:45;34.20;;;16.20;;
76228;SDS011;65021;53.174;18.160;2024-02-15T05:56:11;32.50;;;15.30;;
76228;SDS011;65021;53.174;18.160;2024-02-15T05:58:38;31.00;;;15.60;;
76228;SDS011;65021;53.174;18.160;2024-02-15T06:01:05;34.80;;;17.70;;
76228;SDS011;65021;53.174;18.160;2024-02-15T06:03:32;31.90;;;14.70;;
76228;SDS011;65021;53.174;18.160;2024-02-15T06:06:00;30.60;;;14.20;;
76228;SDS011;65021;53.174;18.160;2024-02-15T06:08:28;31.60;;;15.00;;
76228;SDS011;65021;53.174;18.160;2024-02-15T06:10:57;36.00;;;16.50;;
76228;SDS011;65021;53.174;18.160;2024-02-15T06:13:23;35.40;;;16.20;;
76228;SDS011;65021;53.174;18.160;2024-02-15T06:15:50;32.60;;;15.40;;
76228;SDS011;65021;53.174;18.160;2024-02-15T06:18:23;34.10;;;17.30;;
76228;SDS011;65021;53.174;18.160;2024-02-15T06:20:58;31.30;;;15.50;;
76228;SDS011;65021;53.174;18.160;2024-02-15T06:23:25;31.00;;;16.50;;
76228;SDS011;65021;53.174;18.160;2024-02-15T06:25:53;33.90;;;15.90;;
76228;SDS011;65021;53.174;18.160;2024-02-15T06:28:23;38.40;;;19.50;;
76228;SDS011;65021;53.174;18.160;2024-02-15T06:31:08;32.30;;;17.50;;
76228;SDS011;65021;53.174;18.160;2024-02-15T06:33:54;32.60;;;17.00;;
76228;SDS011;65021;53.174;18.160;2024-02-15T06:39:32;33.60;;;15.90;;
76228;SDS011;65021;53.174;18.160;2024-02-15T06:42:08;38.70;;;20.90;;
76228;SDS011;65021;53.174;18.160;2024-02-15T06:44:37;33.00;;;18.50;;
76228;SDS011;65021;53.174;18.160;2024-02-15T06:47:06;38.20;;;18.30;;
76228;SDS011;65021;53.174;18.160;2024-02-15T06:49:32;34.50;;;16.60;;
76228;SDS011;65021;53.174;18.160;2024-02-15T06:51:59;33.60;;;15.40;;
76228;SDS011;65021;53.174;18.160;2024-02-15T06:54:27;34.80;;;16.00;;
76228;SDS011;65021;53.174;18.160;2024-02-15T06:56:54;35.90;;;17.30;;
76228;SDS011;65021;53.174;18.160;2024-02-15T06:59:20;32.50;;;17.80;;
76228;SDS011;65021;53.174;18.160;2024-02-15T07:01:50;37.30;;;18.10;;
76228;SDS011;65021;53.174;18.160;2024-02-15T07:04:18;41.80;;;18.70;;
76228;SDS011;65021;53.174;18.160;2024-02-15T07:06:44;43.50;;;21.00;;
76228;SDS011;65021;53.174;18.160;2024-02-15T07:09:13;45.70;;;23.90;;
76228;SDS011;65021;53.174;18.160;2024-02-15T07:11:45;39.10;;;20.90;;
76228;SDS011;65021;53.174;18.160;2024-02-15T07:14:12;37.10;;;19.30;;
76228;SDS011;65021;53.174;18.160;2024-02-15T07:16:38;41.70;;;21.00;;
76228;SDS011;65021;53.174;18.160;2024-02-15T07:19:05;33.50;;;16.90;;
76228;SDS011;65021;53.174;18.160;2024-02-15T07:21:31;29.10;;;16.10;;
76228;SDS011;65021;53.174;18.160;2024-02-15T07:23:57;36.70;;;19.00;;
76228;SDS011;65021;53.174;18.160;2024-02-15T07:26:24;37.70;;;18.80;;
76228;SDS011;65021;53.174;18.160;2024-02-15T07:28:53;35.30;;;19.90;;
76228;SDS011;65021;53.174;18.160;2024-02-15T07:31:21;36.60;;;19.00;;
76228;SDS011;65021;53.174;18.160;2024-02-15T07:33:47;36.00;;;17.30;;
76228;SDS011;65021;53.174;18.160;2024-02-15T07:36:17;36.30;;;18.80;;
76228;SDS011;65021;53.174;18.160;2024-02-15T07:38:47;33.40;;;17.00;;
76228;SDS011;65021;53.174;18.160;2024-02-15T07:41:18;31.80;;;16.20;;
76228;SDS011;65021;53.174;18.160;2024-02-15T07:43:50;35.40;;;17.90;;
76228;SDS011;65021;53.174;18.160;2024-02-15T07:46:21;36.10;;;18.60;;
76228;SDS011;65021;53.174;18.160;2024-02-15T07:48:47;35.00;;;17.30;;
76228;SDS011;65021;53.174;18.160;2024-02-15T07:51:18;31.60;;;16.50;;
76228;SDS011;65021;53.174;18.160;2024-02-15T07:53:45;37.30;;;19.80;;
76228;SDS011;65021;53.174;18.160;2024-02-15T07:56:12;37.10;;;18.10;;
76228;SDS011;65021;53.174;18.160;2024-02-15T07:58:41;34.30;;;17.50;;
76228;SDS011;65021;53.174;18.160;2024-02-15T08:01:15;34.10;;;18.40;;
76228;SDS011;65021;53.174;18.160;2024-02-15T08:03:41;35.00;;;18.10;;
76228;SDS011;65021;53.174;18.160;2024-02-15T08:06:11;30.30;;;16.90;;
76228;SDS011;65021;53.174;18.160;2024-02-15T08:08:39;32.90;;;17.90;;
76228;SDS011;65021;53.174;18.160;2024-02-15T08:11:09;32.10;;;18.20;;
76228;SDS011;65021;53.174;18.160;2024-02-15T08:13:51;31.80;;;18.30;;
76228;SDS011;65021;53.174;18.160;2024-02-15T08:16:20;29.80;;;16.90;;
76228;SDS011;65021;53.174;18.160;2024-02-15T08:18:53;34.90;;;16.80;;
76228;SDS011;65021;53.174;18.160;2024-02-15T08:21:32;30.80;;;16.70;;
76228;SDS011;65021;53.174;18.160;2024-02-15T08:24:02;33.50;;;17.70;;
76228;SDS011;65021;53.174;18.160;2024-02-15T08:26:32;32.40;;;16.70;;
76228;SDS011;65021;53.174;18.160;2024-02-15T08:29:01;32.30;;;18.40;;
76228;SDS011;65021;53.174;18.160;2024-02-15T08:31:28;31.50;;;18.40;;
76228;SDS011;65021;53.174;18.160;2024-02-15T08:33:56;29.40;;;16.60;;
76228;SDS011;65021;53.174;18.160;2024-02-15T08:36:22;31.80;;;17.70;;
76228;SDS011;65021;53.174;18.160;2024-02-15T08:38:49;34.60;;;18.80;;
76228;SDS011;65021;53.174;18.160;2024-02-15T08:41:16;35.20;;;18.20;;
76228;SDS011;65021;53.174;18.160;2024-02-15T08:43:44;31.60;;;17.10;;
76228;SDS011;65021;53.174;18.160;2024-02-15T08:46:12;36.80;;;18.10;;
76228;SDS011;65021;53.174;18.160;2024-02-15T08:48:38;32.60;;;18.00;;
76228;SDS011;65021;53.174;18.160;2024-02-15T08:51:04;36.00;;;16.90;;
76228;SDS011;65021;53.174;18.160;2024-02-15T08:53:31;33.20;;;18.70;;
76228;SDS011;65021;53.174;18.160;2024-02-15T08:55:57;33.60;;;19.10;;
76228;SDS011;65021;53.174;18.160;2024-02-15T08:58:23;32.40;;;18.10;;
76228;SDS011;65021;53.174;18.160;2024-02-15T09:00:49;38.10;;;18.10;;
76228;SDS011;65021;53.174;18.160;2024-02-15T09:03:15;35.60;;;19.30;;
76228;SDS011;65021;53.174;18.160;2024-02-15T09:05:41;35.20;;;18.00;;
76228;SDS011;65021;53.174;18.160;2024-02-15T09:08:07;41.90;;;21.20;;
76228;SDS011;65021;53.174;18.160;2024-02-15T09:10:33;36.10;;;20.10;;
76228;SDS011;65021;53.174;18.160;2024-02-15T09:13:01;36.40;;;18.30;;
76228;SDS011;65021;53.174;18.160;2024-02-15T09:15:27;35.40;;;17.70;;
76228;SDS011;65021;53.174;18.160;2024-02-15T09:17:56;35.00;;;18.20;;
76228;SDS011;65021;53.174;18.160;2024-02-15T09:20:24;35.50;;;19.20;;
76228;SDS011;65021;53.174;18.160;2024-02-15T09:22:54;40.00;;;20.50;;
76228;SDS011;65021;53.174;18.160;2024-02-15T09:25:23;33.90;;;18.60;;
76228;SDS011;65021;53.174;18.160;2024-02-15T09:27:49;40.20;;;18.80;;
76228;SDS011;65021;53.174;18.160;2024-02-15T09:30:16;36.90;;;18.80;;
76228;SDS011;65021;53.174;18.160;2024-02-15T09:32:43;38.00;;;19.40;;
76228;SDS011;65021;53.174;18.160;2024-02-15T09:35:10;36.30;;;19.60;;
76228;SDS011;65021;53.174;18.160;2024-02-15T09:37:46;31.90;;;18.90;;
76228;SDS011;65021;53.174;18.160;2024-02-15T09:40:17;37.80;;;18.30;;
76228;SDS011;65021;53.174;18.160;2024-02-15T09:42:44;36.10;;;18.10;;
76228;SDS011;65021;53.174;18.160;2024-02-15T09:45:12;33.40;;;18.30;;
76228;SDS011;65021;53.174;18.160;2024-02-15T09:47:40;37.60;;;20.40;;
76228;SDS011;65021;53.174;18.160;2024-02-15T09:50:10;33.90;;;17.40;;
76228;SDS011;65021;53.174;18.160;2024-02-15T09:52:39;30.80;;;17.50;;
76228;SDS011;65021;53.174;18.160;2024-02-15T09:55:07;31.10;;;17.50;;
76228;SDS011;65021;53.174;18.160;2024-02-15T09:57:39;29.20;;;15.70;;
76228;SDS011;65021;53.174;18.160;2024-02-15T10:00:07;36.90;;;18.70;;
76228;SDS011;65021;53.174;18.160;2024-02-15T10:02:36;34.70;;;16.90;;
76228;SDS011;65021;53.174;18.160;2024-02-15T10:05:05;35.20;;;18.00;;
76228;SDS011;65021;53.174;18.160;2024-02-15T10:07:40;29.50;;;16.70;;
76228;SDS011;65021;53.174;18.160;2024-02-15T10:10:17;34.90;;;18.20;;
76228;SDS011;65021;53.174;18.160;2024-02-15T10:12:52;33.10;;;18.40;;
76228;SDS011;65021;53.174;18.160;2024-02-15T10:15:31;32.10;;;17.00;;
76228;SDS011;65021;53.174;18.160;2024-02-15T10:18:02;41.00;;;21.70;;
76228;SDS011;65021;53.174;18.160;2024-02-15T10:20:29;52.10;;;24.40;;
76228;SDS011;65021;53.174;18.160;2024-02-15T10:25:25;46.20;;;22.60;;
76228;SDS011;65021;53.174;18.160;2024-02-15T10:28:01;51.30;;;24.90;;
76228;SDS011;65021;53.174;18.160;2024-02-15T10:30:36;49.70;;;23.80;;
76228;SDS011;65021;53.174;18.160;2024-02-15T10:33:03;57.00;;;26.90;;
76228;SDS011;65021;53.174;18.160;2024-02-15T10:35:30;54.50;;;26.90;;
76228;SDS011;65021;53.174;18.160;2024-02-15T10:38:09;53.40;;;28.80;;
76228;SDS011;65021;53.174;18.160;2024-02-15T10:40:39;62.60;;;30.90;;
76228;SDS011;65021;53.174;18.160;2024-02-15T10:43:09;58.70;;;30.20;;
76228;SDS011;65021;53.174;18.160;2024-02-15T10:45:39;56.10;;;29.90;;
76228;SDS011;65021;53.174;18.160;2024-02-15T10:48:09;62.70;;;31.90;;
76228;SDS011;65021;53.174;18.160;2024-02-15T10:50:36;62.20;;;29.70;;
76228;SDS011;65021;53.174;18.160;2024-02-15T10:53:11;58.20;;;30.30;;
76228;SDS011;65021;53.174;18.160;2024-02-15T10:55:52;60.00;;;32.40;;
76228;SDS011;65021;53.174;18.160;2024-02-15T10:58:23;63.70;;;30.50;;
76228;SDS011;65021;53.174;18.160;2024-02-15T11:00:56;56.80;;;31.50;;
76228;SDS011;65021;53.174;18.160;2024-02-15T11:03:29;48.90;;;25.10;;
76228;SDS011;65021;53.174;18.160;2024-02-15T11:06:02;59.60;;;30.30;;
76228;SDS011;65021;53.174;18.160;2024-02-15T11:08:32;57.80;;;29.60;;
76228;SDS011;65021;53.174;18.160;2024-02-15T11:10:58;54.60;;;29.60;;
76228;SDS011;65021;53.174;18.160;2024-02-15T11:13:28;66.70;;;31.40;;
76228;SDS011;65021;53.174;18.160;2024-02-15T11:15:58;54.20;;;28.40;;
76228;SDS011;65021;53.174;18.160;2024-02-15T11:24:28;49.30;;;26.10;;
76228;SDS011;65021;53.174;18.160;2024-02-15T11:26:58;49.80;;;26.80;;
76228;SDS011;65021;53.174;18.160;2024-02-15T11:35:09;48.90;;;28.20;;
76228;SDS011;65021;53.174;18.160;2024-02-15T11:40:24;51.50;;;27.00;;
76228;SDS011;65021;53.174;18.160;2024-02-15T11:42:58;50.20;;;25.30;;
76228;SDS011;65021;53.174;18.160;2024-02-15T11:45:25;38.20;;;24.20;;
76228;SDS011;65021;53.174;18.160;2024-02-15T11:48:10;44.60;;;25.80;;
76228;SDS011;65021;53.174;18.160;2024-02-15T11:50:37;41.40;;;22.60;;
76228;SDS011;65021;53.174;18.160;2024-02-15T11:53:05;47.90;;;24.90;;
76228;SDS011;65021;53.174;18.160;2024-02-15T11:55:35;42.30;;;24.60;;
76228;SDS011;65021;53.174;18.160;2024-02-15T11:58:04;42.80;;;24.30;;
76228;SDS011;65021;53.174;18.160;2024-02-15T12:00:42;44.10;;;25.00;;
76228;SDS011;65021;53.174;18.160;2024-02-15T12:03:27;42.50;;;24.40;;
76228;SDS011;65021;53.174;18.160;2024-02-15T12:06:12;39.30;;;23.70;;
76228;SDS011;65021;53.174;18.160;2024-02-15T12:09:01;35.20;;;21.10;;
76228;SDS011;65021;53.174;18.160;2024-02-15T12:11:46;35.40;;;23.40;;
76228;SDS011;65021;53.174;18.160;2024-02-15T12:14:30;39.00;;;22.50;;
76228;SDS011;65021;53.174;18.160;2024-02-15T12:17:15;41.90;;;24.30;;
76228;SDS011;65021;53.174;18.160;2024-02-15T12:20:00;44.00;;;25.50;;
76228;SDS011;65021;53.174;18.160;2024-02-15T12:22:33;42.40;;;25.30;;
76228;SDS011;65021;53.174;18.160;2024-02-15T12:25:03;39.50;;;23.40;;
76228;SDS011;65021;53.174;18.160;2024-02-15T12:27:40;41.50;;;23.80;;
76228;SDS011;65021;53.174;18.160;2024-02-15T12:30:15;42.00;;;25.40;;
76228;SDS011;65021;53.174;18.160;2024-02-15T12:32:45;48.30;;;26.60;;
76228;SDS011;65021;53.174;18.160;2024-02-15T12:35:16;43.70;;;25.80;;
76228;SDS011;65021;53.174;18.160;2024-02-15T12:40:31;45.80;;;26.50;;
76228;SDS011;65021;53.174;18.160;2024-02-15T12:42:58;43.70;;;26.10;;
76228;SDS011;65021;53.174;18.160;2024-02-15T12:45:25;38.50;;;23.70;;
76228;SDS011;65021;53.174;18.160;2024-02-15T12:47:55;47.50;;;26.60;;
76228;SDS011;65021;53.174;18.160;2024-02-15T12:50:23;40.40;;;24.30;;
76228;SDS011;65021;53.174;18.160;2024-02-15T12:52:53;38.50;;;23.30;;
76228;SDS011;65021;53.174;18.160;2024-02-15T12:55:29;44.70;;;27.10;;
76228;SDS011;65021;53.174;18.160;2024-02-15T12:58:00;41.80;;;25.40;;
76228;SDS011;65021;53.174;18.160;2024-02-15T13:00:34;38.90;;;23.80;;
76228;SDS011;65021;53.174;18.160;2024-02-15T13:03:04;44.90;;;24.70;;
76228;SDS011;65021;53.174;18.160;2024-02-15T13:05:34;47.80;;;26.00;;
76228;SDS011;65021;53.174;18.160;2024-02-15T13:08:02;39.00;;;23.00;;
76228;SDS011;65021;53.174;18.160;2024-02-15T13:10:29;42.40;;;23.90;;
76228;SDS011;65021;53.174;18.160;2024-02-15T13:12:55;38.70;;;21.80;;
76228;SDS011;65021;53.174;18.160;2024-02-15T13:15:22;37.50;;;22.90;;
76228;SDS011;65021;53.174;18.160;2024-02-15T13:17:53;40.00;;;22.50;;
76228;SDS011;65021;53.174;18.160;2024-02-15T13:20:20;43.50;;;23.60;;
76228;SDS011;65021;53.174;18.160;2024-02-15T13:22:58;34.50;;;20.60;;
76228;SDS011;65021;53.174;18.160;2024-02-15T13:25:28;40.20;;;23.50;;
76228;SDS011;65021;53.174;18.160;2024-02-15T13:27:55;35.00;;;21.70;;
76228;SDS011;65021;53.174;18.160;2024-02-15T13:30:24;35.00;;;19.80;;
76228;SDS011;65021;53.174;18.160;2024-02-15T13:32:53;36.20;;;21.10;;
76228;SDS011;65021;53.174;18.160;2024-02-15T13:35:22;35.30;;;21.20;;
76228;SDS011;65021;53.174;18.160;2024-02-15T13:37:53;33.10;;;21.20;;
76228;SDS011;65021;53.174;18.160;2024-02-15T13:40:23;33.80;;;20.90;;
76228;SDS011;65021;53.174;18.160;2024-02-15T13:42:51;36.30;;;18.70;;
76228;SDS011;65021;53.174;18.160;2024-02-15T13:45:22;35.40;;;20.40;;
76228;SDS011;65021;53.174;18.160;2024-02-15T13:47:49;37.30;;;20.40;;
76228;SDS011;65021;53.174;18.160;2024-02-15T13:50:16;36.30;;;20.60;;
76228;SDS011;65021;53.174;18.160;2024-02-15T13:52:43;34.70;;;21.20;;
76228;SDS011;65021;53.174;18.160;2024-02-15T13:55:13;36.10;;;21.00;;
76228;SDS011;65021;53.174;18.160;2024-02-15T13:57:41;35.60;;;19.70;;
76228;SDS011;65021;53.174;18.160;2024-02-15T14:00:10;35.40;;;21.50;;
76228;SDS011;65021;53.174;18.160;2024-02-15T14:02:53;35.20;;;20.50;;
76228;SDS011;65021;53.174;18.160;2024-02-15T14:05:22;32.90;;;19.60;;
76228;SDS011;65021;53.174;18.160;2024-02-15T14:07:58;30.40;;;18.50;;
76228;SDS011;65021;53.174;18.160;2024-02-15T14:10:39;35.60;;;19.50;;
76228;SDS011;65021;53.174;18.160;2024-02-15T14:13:06;31.00;;;19.40;;
76228;SDS011;65021;53.174;18.160;2024-02-15T14:15:34;34.20;;;19.60;;
76228;SDS011;65021;53.174;18.160;2024-02-15T14:18:04;34.60;;;20.80;;
76228;SDS011;65021;53.174;18.160;2024-02-15T14:20:31;36.40;;;20.60;;
76228;SDS011;65021;53.174;18.160;2024-02-15T14:22:58;31.50;;;20.30;;
76228;SDS011;65021;53.174;18.160;2024-02-15T14:25:28;32.30;;;19.10;;
76228;SDS011;65021;53.174;18.160;2024-02-15T14:27:56;38.20;;;20.60;;
76228;SDS011;65021;53.174;18.160;2024-02-15T14:30:24;34.10;;;20.40;;
76228;SDS011;65021;53.174;18.160;2024-02-15T14:33:08;34.60;;;20.50;;
76228;SDS011;65021;53.174;18.160;2024-02-15T14:35:37;35.80;;;19.80;;
76228;SDS011;65021;53.174;18.160;2024-02-15T14:38:08;32.10;;;19.30;;
76228;SDS011;65021;53.174;18.160;2024-02-15T14:43:03;34.10;;;17.90;;
76228;SDS011;65021;53.174;18.160;2024-02-15T14:45:32;38.90;;;19.60;;
76228;SDS011;65021;53.174;18.160;2024-02-15T14:47:58;33.00;;;19.20;;
76228;SDS011;65021;53.174;18.160;2024-02-15T14:50:25;32.30;;;17.90;;